sensor_id;sensor_type;location;lat;lon;timestamp;temperature;humidity
33673;DHT22;20011;51.510;9.942;2022-11-20T00:01:26;0.80;92.10
33673;DHT22;20011;51.510;9.942;2022-11-20T00:03:54;1.90;92.60
33673;DHT22;20011;51.510;9.942;2022-11-20T00:06:23;0.70;92.50
33673;DHT22;20011;51.510;9.942;2022-11-20T00:08:54;1.20;92.60
33673;DHT22;20011;51.510;9.942;2022-11-20T00:11:23;0.70;92.50
33673;DHT22;20011;51.510;9.942;2022-11-20T00:13:52;0.60;92.30
33673;DHT22;20011;51.510;9.942;2022-11-20T00:16:22;0.60;92.40
33673;DHT22;20011;51.510;9.942;2022-11-20T00:18:49;1.70;92.60
33673;DHT22;20011;51.510;9.942;2022-11-20T00:21:22;2.20;92.30
33673;DHT22;20011;51.510;9.942;2022-11-20T00:23:50;1.30;92.20
33673;DHT22;20011;51.510;9.942;2022-11-20T00:26:22;0.70;92.00
33673;DHT22;20011;51.510;9.942;2022-11-20T00:28:59;1.40;92.20
33673;DHT22;20011;51.510;9.942;2022-11-20T00:31:27;0.90;92.10
33673;DHT22;20011;51.510;9.942;2022-11-20T00:33:55;1.20;92.10
33673;DHT22;20011;51.510;9.942;2022-11-20T00:36:25;0.60;92.10
33673;DHT22;20011;51.510;9.942;2022-11-20T00:38:53;2.10;92.20
33673;DHT22;20011;51.510;9.942;2022-11-20T00:41:20;1.30;92.10
33673;DHT22;20011;51.510;9.942;2022-11-20T00:43:48;1.10;92.30
33673;DHT22;20011;51.510;9.942;2022-11-20T00:46:18;2.10;92.60
33673;DHT22;20011;51.510;9.942;2022-11-20T00:48:46;1.00;92.00
33673;DHT22;20011;51.510;9.942;2022-11-20T00:51:16;1.20;91.80
33673;DHT22;20011;51.510;9.942;2022-11-20T00:53:44;0.70;91.70
33673;DHT22;20011;51.510;9.942;2022-11-20T00:56:12;0.80;91.60
33673;DHT22;20011;51.510;9.942;2022-11-20T00:58:41;1.30;91.90
33673;DHT22;20011;51.510;9.942;2022-11-20T01:01:14;0.90;91.90
33673;DHT22;20011;51.510;9.942;2022-11-20T01:03:44;1.10;92.10
33673;DHT22;20011;51.510;9.942;2022-11-20T01:06:18;1.60;91.80
33673;DHT22;20011;51.510;9.942;2022-11-20T01:08:46;0.40;91.40
33673;DHT22;20011;51.510;9.942;2022-11-20T01:11:16;0.60;91.70
33673;DHT22;20011;51.510;9.942;2022-11-20T01:13:45;0.50;91.40
33673;DHT22;20011;51.510;9.942;2022-11-20T01:18:48;1.50;91.70
33673;DHT22;20011;51.510;9.942;2022-11-20T01:21:21;1.20;91.70
33673;DHT22;20011;51.510;9.942;2022-11-20T01:23:49;0.50;91.40
33673;DHT22;20011;51.510;9.942;2022-11-20T01:26:19;1.20;91.40
33673;DHT22;20011;51.510;9.942;2022-11-20T01:28:47;0.50;91.30
33673;DHT22;20011;51.510;9.942;2022-11-20T01:33:46;1.10;91.40
33673;DHT22;20011;51.510;9.942;2022-11-20T01:36:15;0.40;91.20
33673;DHT22;20011;51.510;9.942;2022-11-20T01:38:42;1.00;91.70
33673;DHT22;20011;51.510;9.942;2022-11-20T01:41:10;1.40;91.70
33673;DHT22;20011;51.510;9.942;2022-11-20T01:43:37;1.30;91.70
33673;DHT22;20011;51.510;9.942;2022-11-20T01:49:11;0.40;91.60
33673;DHT22;20011;51.510;9.942;2022-11-20T01:54:23;0.70;91.20
33673;DHT22;20011;51.510;9.942;2022-11-20T01:56:54;0.40;91.30
33673;DHT22;20011;51.510;9.942;2022-11-20T01:59:25;0.90;91.50
33673;DHT22;20011;51.510;9.942;2022-11-20T02:01:53;1.90;91.80
33673;DHT22;20011;51.510;9.942;2022-11-20T02:04:20;1.80;91.30
33673;DHT22;20011;51.510;9.942;2022-11-20T02:07:00;1.40;90.90
33673;DHT22;20011;51.510;9.942;2022-11-20T02:09:28;0.20;90.60
33673;DHT22;20011;51.510;9.942;2022-11-20T02:11:56;0.20;91.10
33673;DHT22;20011;51.510;9.942;2022-11-20T02:14:24;1.00;91.10
33673;DHT22;20011;51.510;9.942;2022-11-20T02:16:52;0.60;91.20
33673;DHT22;20011;51.510;9.942;2022-11-20T02:19:27;0.20;91.20
33673;DHT22;20011;51.510;9.942;2022-11-20T02:24:31;0.50;91.70
33673;DHT22;20011;51.510;9.942;2022-11-20T02:27:02;1.80;92.00
33673;DHT22;20011;51.510;9.942;2022-11-20T02:29:40;0.20;91.50
33673;DHT22;20011;51.510;9.942;2022-11-20T02:32:29;0.20;91.40
33673;DHT22;20011;51.510;9.942;2022-11-20T02:34:57;0.30;91.20
33673;DHT22;20011;51.510;9.942;2022-11-20T02:37:30;1.00;91.20
33673;DHT22;20011;51.510;9.942;2022-11-20T02:39:59;0.20;91.30
33673;DHT22;20011;51.510;9.942;2022-11-20T02:42:26;1.80;91.50
33673;DHT22;20011;51.510;9.942;2022-11-20T02:44:53;1.20;91.30
33673;DHT22;20011;51.510;9.942;2022-11-20T02:47:20;2.00;91.20
33673;DHT22;20011;51.510;9.942;2022-11-20T02:49:47;1.10;90.90
33673;DHT22;20011;51.510;9.942;2022-11-20T02:52:13;0.80;90.40
33673;DHT22;20011;51.510;9.942;2022-11-20T02:54:40;1.40;90.60
33673;DHT22;20011;51.510;9.942;2022-11-20T02:57:07;1.20;90.70
33673;DHT22;20011;51.510;9.942;2022-11-20T02:59:34;0.10;90.60
33673;DHT22;20011;51.510;9.942;2022-11-20T03:02:01;1.40;91.40
33673;DHT22;20011;51.510;9.942;2022-11-20T03:04:28;1.80;91.80
33673;DHT22;20011;51.510;9.942;2022-11-20T03:06:55;1.80;91.70
33673;DHT22;20011;51.510;9.942;2022-11-20T03:09:22;0.50;91.40
33673;DHT22;20011;51.510;9.942;2022-11-20T03:11:49;0.00;91.30
33673;DHT22;20011;51.510;9.942;2022-11-20T03:14:16;0.00;91.40
33673;DHT22;20011;51.510;9.942;2022-11-20T03:16:43;0.10;91.40
33673;DHT22;20011;51.510;9.942;2022-11-20T03:19:12;1.40;91.80
33673;DHT22;20011;51.510;9.942;2022-11-20T03:21:40;0.80;91.60
33673;DHT22;20011;51.510;9.942;2022-11-20T03:24:07;0.40;91.50
33673;DHT22;20011;51.510;9.942;2022-11-20T03:26:34;0.10;91.30
33673;DHT22;20011;51.510;9.942;2022-11-20T03:29:03;0.40;90.80
33673;DHT22;20011;51.510;9.942;2022-11-20T03:31:39;0.30;90.80
33673;DHT22;20011;51.510;9.942;2022-11-20T03:34:10;0.20;90.90
33673;DHT22;20011;51.510;9.942;2022-11-20T03:36:40;1.60;91.10
33673;DHT22;20011;51.510;9.942;2022-11-20T03:39:07;1.10;90.80
33673;DHT22;20011;51.510;9.942;2022-11-20T03:41:39;1.20;90.90
33673;DHT22;20011;51.510;9.942;2022-11-20T03:44:10;0.20;90.70
33673;DHT22;20011;51.510;9.942;2022-11-20T03:46:38;0.10;91.00
33673;DHT22;20011;51.510;9.942;2022-11-20T03:49:05;0.30;91.00
33673;DHT22;20011;51.510;9.942;2022-11-20T03:51:34;0.00;91.40
33673;DHT22;20011;51.510;9.942;2022-11-20T03:54:05;1.00;91.70
33673;DHT22;20011;51.510;9.942;2022-11-20T03:56:35;-0.20;91.10
33673;DHT22;20011;51.510;9.942;2022-11-20T03:59:02;-0.10;91.40
33673;DHT22;20011;51.510;9.942;2022-11-20T04:01:31;-0.10;91.60
33673;DHT22;20011;51.510;9.942;2022-11-20T04:03:59;0.50;91.50
33673;DHT22;20011;51.510;9.942;2022-11-20T04:06:29;-0.10;91.70
33673;DHT22;20011;51.510;9.942;2022-11-20T04:08:57;0.70;91.80
33673;DHT22;20011;51.510;9.942;2022-11-20T04:13:56;-0.10;91.40
33673;DHT22;20011;51.510;9.942;2022-11-20T04:16:24;-0.10;91.50
33673;DHT22;20011;51.510;9.942;2022-11-20T04:18:56;1.30;91.80
33673;DHT22;20011;51.510;9.942;2022-11-20T04:21:23;0.20;91.60
33673;DHT22;20011;51.510;9.942;2022-11-20T04:23:51;0.40;91.50
33673;DHT22;20011;51.510;9.942;2022-11-20T04:26:20;1.50;91.40
33673;DHT22;20011;51.510;9.942;2022-11-20T04:28:47;0.40;91.10
33673;DHT22;20011;51.510;9.942;2022-11-20T04:31:17;0.70;91.20
33673;DHT22;20011;51.510;9.942;2022-11-20T04:33:44;-0.20;91.00
33673;DHT22;20011;51.510;9.942;2022-11-20T04:36:15;1.10;91.30
33673;DHT22;20011;51.510;9.942;2022-11-20T04:38:42;1.30;91.50
33673;DHT22;20011;51.510;9.942;2022-11-20T04:41:16;-0.20;90.90
33673;DHT22;20011;51.510;9.942;2022-11-20T04:43:52;0.90;91.40
33673;DHT22;20011;51.510;9.942;2022-11-20T04:46:20;-0.30;90.80
33673;DHT22;20011;51.510;9.942;2022-11-20T04:48:47;-0.40;90.90
33673;DHT22;20011;51.510;9.942;2022-11-20T04:51:14;1.40;91.00
33673;DHT22;20011;51.510;9.942;2022-11-20T04:53:41;1.40;91.10
33673;DHT22;20011;51.510;9.942;2022-11-20T04:56:10;-0.40;90.80
33673;DHT22;20011;51.510;9.942;2022-11-20T04:58:38;1.30;91.00
33673;DHT22;20011;51.510;9.942;2022-11-20T05:01:11;-0.40;90.70
33673;DHT22;20011;51.510;9.942;2022-11-20T05:03:39;-0.50;90.70
33673;DHT22;20011;51.510;9.942;2022-11-20T05:06:09;0.30;90.70
33673;DHT22;20011;51.510;9.942;2022-11-20T05:08:37;0.40;90.90
33673;DHT22;20011;51.510;9.942;2022-11-20T05:11:09;0.30;91.20
33673;DHT22;20011;51.510;9.942;2022-11-20T05:13:37;0.40;91.40
33673;DHT22;20011;51.510;9.942;2022-11-20T05:16:06;1.00;91.50
33673;DHT22;20011;51.510;9.942;2022-11-20T05:18:35;-0.50;91.10
33673;DHT22;20011;51.510;9.942;2022-11-20T05:21:02;0.70;91.50
33673;DHT22;20011;51.510;9.942;2022-11-20T05:23:30;-0.50;91.50
33673;DHT22;20011;51.510;9.942;2022-11-20T05:25:58;-0.50;91.10
33673;DHT22;20011;51.510;9.942;2022-11-20T05:28:27;1.20;91.70
33673;DHT22;20011;51.510;9.942;2022-11-20T05:30:55;0.40;91.60
33673;DHT22;20011;51.510;9.942;2022-11-20T05:33:22;1.20;91.90
33673;DHT22;20011;51.510;9.942;2022-11-20T05:35:49;0.80;91.70
33673;DHT22;20011;51.510;9.942;2022-11-20T05:38:16;0.50;91.80
33673;DHT22;20011;51.510;9.942;2022-11-20T05:40:43;1.40;91.70
33673;DHT22;20011;51.510;9.942;2022-11-20T05:43:10;1.30;91.70
33673;DHT22;20011;51.510;9.942;2022-11-20T05:45:37;0.50;91.50
33673;DHT22;20011;51.510;9.942;2022-11-20T05:48:04;0.60;91.50
33673;DHT22;20011;51.510;9.942;2022-11-20T05:50:31;-0.20;91.40
33673;DHT22;20011;51.510;9.942;2022-11-20T05:52:58;1.10;91.70
33673;DHT22;20011;51.510;9.942;2022-11-20T05:55:26;0.60;91.20
33673;DHT22;20011;51.510;9.942;2022-11-20T05:57:54;1.10;91.50
33673;DHT22;20011;51.510;9.942;2022-11-20T06:00:22;1.00;91.40
33673;DHT22;20011;51.510;9.942;2022-11-20T06:02:49;0.40;91.30
33673;DHT22;20011;51.510;9.942;2022-11-20T06:05:16;1.00;91.50
33673;DHT22;20011;51.510;9.942;2022-11-20T06:07:43;0.00;91.10
33673;DHT22;20011;51.510;9.942;2022-11-20T06:10:10;0.30;91.20
33673;DHT22;20011;51.510;9.942;2022-11-20T06:12:37;0.10;90.70
33673;DHT22;20011;51.510;9.942;2022-11-20T06:15:05;0.70;90.80
33673;DHT22;20011;51.510;9.942;2022-11-20T06:17:32;0.00;90.40
33673;DHT22;20011;51.510;9.942;2022-11-20T06:19:59;1.30;91.00
33673;DHT22;20011;51.510;9.942;2022-11-20T06:22:26;1.60;91.40
33673;DHT22;20011;51.510;9.942;2022-11-20T06:24:53;0.70;91.00
33673;DHT22;20011;51.510;9.942;2022-11-20T06:27:20;0.60;91.10
33673;DHT22;20011;51.510;9.942;2022-11-20T06:29:47;1.30;91.40
33673;DHT22;20011;51.510;9.942;2022-11-20T06:32:14;0.20;91.40
33673;DHT22;20011;51.510;9.942;2022-11-20T06:34:41;-0.30;91.20
33673;DHT22;20011;51.510;9.942;2022-11-20T06:37:08;0.60;91.40
33673;DHT22;20011;51.510;9.942;2022-11-20T06:39:35;1.30;91.70
33673;DHT22;20011;51.510;9.942;2022-11-20T06:42:02;-0.30;91.40
33673;DHT22;20011;51.510;9.942;2022-11-20T06:44:29;-0.20;91.40
33673;DHT22;20011;51.510;9.942;2022-11-20T06:46:56;0.20;91.60
33673;DHT22;20011;51.510;9.942;2022-11-20T06:49:23;0.80;92.30
33673;DHT22;20011;51.510;9.942;2022-11-20T06:51:50;1.60;92.90
33673;DHT22;20011;51.510;9.942;2022-11-20T06:54:17;1.70;92.70
33673;DHT22;20011;51.510;9.942;2022-11-20T06:56:48;1.30;92.60
33673;DHT22;20011;51.510;9.942;2022-11-20T06:59:15;1.80;92.80
33673;DHT22;20011;51.510;9.942;2022-11-20T07:01:42;0.50;92.90
33673;DHT22;20011;51.510;9.942;2022-11-20T07:04:09;1.00;93.00
33673;DHT22;20011;51.510;9.942;2022-11-20T07:06:35;1.60;93.40
33673;DHT22;20011;51.510;9.942;2022-11-20T07:09:02;0.60;93.30
33673;DHT22;20011;51.510;9.942;2022-11-20T07:11:35;1.80;93.70
33673;DHT22;20011;51.510;9.942;2022-11-20T07:14:02;1.10;93.50
33673;DHT22;20011;51.510;9.942;2022-11-20T07:16:29;0.30;93.20
33673;DHT22;20011;51.510;9.942;2022-11-20T07:18:56;1.50;93.70
33673;DHT22;20011;51.510;9.942;2022-11-20T07:21:23;0.30;93.80
33673;DHT22;20011;51.510;9.942;2022-11-20T07:23:50;0.80;93.90
33673;DHT22;20011;51.510;9.942;2022-11-20T07:26:17;1.60;93.70
33673;DHT22;20011;51.510;9.942;2022-11-20T07:28:44;0.60;93.60
33673;DHT22;20011;51.510;9.942;2022-11-20T07:31:12;0.50;93.60
33673;DHT22;20011;51.510;9.942;2022-11-20T07:33:45;0.50;93.40
33673;DHT22;20011;51.510;9.942;2022-11-20T07:36:12;0.70;93.50
33673;DHT22;20011;51.510;9.942;2022-11-20T07:38:39;2.40;94.00
33673;DHT22;20011;51.510;9.942;2022-11-20T07:41:06;2.10;94.00
33673;DHT22;20011;51.510;9.942;2022-11-20T07:43:33;1.60;93.50
33673;DHT22;20011;51.510;9.942;2022-11-20T07:46:06;1.00;93.40
33673;DHT22;20011;51.510;9.942;2022-11-20T07:48:33;1.60;93.80
33673;DHT22;20011;51.510;9.942;2022-11-20T07:51:00;2.20;93.90
33673;DHT22;20011;51.510;9.942;2022-11-20T07:53:27;0.70;93.60
33673;DHT22;20011;51.510;9.942;2022-11-20T07:55:54;0.70;93.90
33673;DHT22;20011;51.510;9.942;2022-11-20T07:58:21;2.30;94.50
33673;DHT22;20011;51.510;9.942;2022-11-20T08:00:48;1.10;94.40
33673;DHT22;20011;51.510;9.942;2022-11-20T08:03:16;0.60;94.30
33673;DHT22;20011;51.510;9.942;2022-11-20T08:05:50;0.60;94.50
33673;DHT22;20011;51.510;9.942;2022-11-20T08:08:17;0.60;94.80
33673;DHT22;20011;51.510;9.942;2022-11-20T08:10:44;1.40;94.80
33673;DHT22;20011;51.510;9.942;2022-11-20T08:13:11;0.70;94.90
33673;DHT22;20011;51.510;9.942;2022-11-20T08:15:56;1.70;95.10
33673;DHT22;20011;51.510;9.942;2022-11-20T08:18:23;0.80;94.80
33673;DHT22;20011;51.510;9.942;2022-11-20T08:21:03;0.90;94.80
33673;DHT22;20011;51.510;9.942;2022-11-20T08:23:30;0.90;95.00
33673;DHT22;20011;51.510;9.942;2022-11-20T08:25:57;1.90;95.40
33673;DHT22;20011;51.510;9.942;2022-11-20T08:28:24;1.10;95.00
33673;DHT22;20011;51.510;9.942;2022-11-20T08:30:51;1.70;95.10
33673;DHT22;20011;51.510;9.942;2022-11-20T08:33:18;1.20;95.20
33673;DHT22;20011;51.510;9.942;2022-11-20T08:35:45;2.20;95.70
33673;DHT22;20011;51.510;9.942;2022-11-20T08:38:12;2.60;95.70
33673;DHT22;20011;51.510;9.942;2022-11-20T08:40:39;2.50;95.70
33673;DHT22;20011;51.510;9.942;2022-11-20T08:43:06;2.10;95.40
33673;DHT22;20011;51.510;9.942;2022-11-20T08:45:33;2.00;95.30
33673;DHT22;20011;51.510;9.942;2022-11-20T08:48:04;2.70;95.30
33673;DHT22;20011;51.510;9.942;2022-11-20T08:50:31;1.50;95.10
33673;DHT22;20011;51.510;9.942;2022-11-20T08:53:04;3.10;95.50
33673;DHT22;20011;51.510;9.942;2022-11-20T08:55:31;1.60;95.30
33673;DHT22;20011;51.510;9.942;2022-11-20T08:58:02;2.80;95.60
33673;DHT22;20011;51.510;9.942;2022-11-20T09:00:29;2.80;95.50
33673;DHT22;20011;51.510;9.942;2022-11-20T09:02:56;1.50;95.50
33673;DHT22;20011;51.510;9.942;2022-11-20T09:05:24;1.60;95.70
33673;DHT22;20011;51.510;9.942;2022-11-20T09:07:51;2.60;96.00
33673;DHT22;20011;51.510;9.942;2022-11-20T09:10:18;2.90;96.10
33673;DHT22;20011;51.510;9.942;2022-11-20T09:12:52;1.60;95.60
33673;DHT22;20011;51.510;9.942;2022-11-20T09:15:19;2.60;95.80
33673;DHT22;20011;51.510;9.942;2022-11-20T09:18:02;1.50;95.40
33673;DHT22;20011;51.510;9.942;2022-11-20T09:20:31;1.50;95.20
33673;DHT22;20011;51.510;9.942;2022-11-20T09:22:58;1.50;95.50
33673;DHT22;20011;51.510;9.942;2022-11-20T09:25:25;2.00;95.60
33673;DHT22;20011;51.510;9.942;2022-11-20T09:27:58;2.20;95.30
33673;DHT22;20011;51.510;9.942;2022-11-20T09:30:26;1.60;95.40
33673;DHT22;20011;51.510;9.942;2022-11-20T09:32:57;1.60;95.10
33673;DHT22;20011;51.510;9.942;2022-11-20T09:35:25;1.60;96.00
33673;DHT22;20011;51.510;9.942;2022-11-20T09:37:52;2.60;95.90
33673;DHT22;20011;51.510;9.942;2022-11-20T09:40:25;1.60;95.30
33673;DHT22;20011;51.510;9.942;2022-11-20T09:48:37;1.60;95.50
33673;DHT22;20011;51.510;9.942;2022-11-20T09:56:37;1.60;95.80
33673;DHT22;20011;51.510;9.942;2022-11-20T09:59:07;3.00;96.30
33673;DHT22;20011;51.510;9.942;2022-11-20T10:01:38;2.20;96.20
33673;DHT22;20011;51.510;9.942;2022-11-20T10:04:14;3.10;96.30
33673;DHT22;20011;51.510;9.942;2022-11-20T10:09:40;1.50;96.00
33673;DHT22;20011;51.510;9.942;2022-11-20T10:15:31;1.60;96.00
33673;DHT22;20011;51.510;9.942;2022-11-20T10:29:36;1.70;96.10
33673;DHT22;20011;51.510;9.942;2022-11-20T10:32:11;2.30;96.10
33673;DHT22;20011;51.510;9.942;2022-11-20T10:34:49;2.30;96.30
33673;DHT22;20011;51.510;9.942;2022-11-20T10:37:24;1.80;96.20
33673;DHT22;20011;51.510;9.942;2022-11-20T10:40:26;1.80;96.20
33673;DHT22;20011;51.510;9.942;2022-11-20T10:43:08;1.80;96.00
33673;DHT22;20011;51.510;9.942;2022-11-20T10:46:00;1.90;96.10
33673;DHT22;20011;51.510;9.942;2022-11-20T10:48:31;2.00;96.20
33673;DHT22;20011;51.510;9.942;2022-11-20T10:56:38;2.00;96.20
33673;DHT22;20011;51.510;9.942;2022-11-20T10:59:38;2.00;96.30
33673;DHT22;20011;51.510;9.942;2022-11-20T11:02:20;2.10;96.60
33673;DHT22;20011;51.510;9.942;2022-11-20T11:04:52;3.20;96.80
33673;DHT22;20011;51.510;9.942;2022-11-20T11:07:27;2.50;96.60
33673;DHT22;20011;51.510;9.942;2022-11-20T11:09:56;2.10;96.50
33673;DHT22;20011;51.510;9.942;2022-11-20T11:12:28;2.20;96.60
33673;DHT22;20011;51.510;9.942;2022-11-20T11:14:58;2.30;96.60
33673;DHT22;20011;51.510;9.942;2022-11-20T11:20:06;3.00;96.80
33673;DHT22;20011;51.510;9.942;2022-11-20T11:22:42;2.30;96.60
33673;DHT22;20011;51.510;9.942;2022-11-20T11:25:22;3.70;96.90
33673;DHT22;20011;51.510;9.942;2022-11-20T11:27:50;4.00;97.00
33673;DHT22;20011;51.510;9.942;2022-11-20T11:30:19;3.30;96.80
33673;DHT22;20011;51.510;9.942;2022-11-20T11:32:47;2.40;96.60
33673;DHT22;20011;51.510;9.942;2022-11-20T11:35:23;2.50;96.60
33673;DHT22;20011;51.510;9.942;2022-11-20T11:37:51;2.50;96.60
33673;DHT22;20011;51.510;9.942;2022-11-20T11:40:21;3.50;96.90
33673;DHT22;20011;51.510;9.942;2022-11-20T11:42:59;2.50;96.60
33673;DHT22;20011;51.510;9.942;2022-11-20T11:45:28;3.00;96.60
33673;DHT22;20011;51.510;9.942;2022-11-20T11:47:57;2.60;96.40
33673;DHT22;20011;51.510;9.942;2022-11-20T11:50:27;2.60;96.40
33673;DHT22;20011;51.510;9.942;2022-11-20T11:53:12;3.20;96.70
33673;DHT22;20011;51.510;9.942;2022-11-20T11:58:46;2.60;96.80
33673;DHT22;20011;51.510;9.942;2022-11-20T12:06:58;2.70;96.50
33673;DHT22;20011;51.510;9.942;2022-11-20T12:09:52;2.70;96.70
33673;DHT22;20011;51.510;9.942;2022-11-20T12:12:36;3.10;96.80
33673;DHT22;20011;51.510;9.942;2022-11-20T12:15:11;2.70;96.60
33673;DHT22;20011;51.510;9.942;2022-11-20T12:17:38;2.70;96.70
33673;DHT22;20011;51.510;9.942;2022-11-20T12:20:12;2.90;96.90
33673;DHT22;20011;51.510;9.942;2022-11-20T12:23:22;2.80;96.70
33673;DHT22;20011;51.510;9.942;2022-11-20T12:25:52;3.90;97.10
33673;DHT22;20011;51.510;9.942;2022-11-20T12:31:30;3.70;97.00
33673;DHT22;20011;51.510;9.942;2022-11-20T12:37:24;2.90;96.60
33673;DHT22;20011;51.510;9.942;2022-11-20T12:39:35;2.90;96.60
33673;DHT22;20011;51.510;9.942;2022-11-20T12:42:19;2.10;96.10
33673;DHT22;20011;51.510;9.942;2022-11-20T12:54:32;3.10;95.90
33673;DHT22;20011;51.510;9.942;2022-11-20T13:02:26;3.20;95.60
33673;DHT22;20011;51.510;9.942;2022-11-20T13:07:21;3.70;95.80
33673;DHT22;20011;51.510;9.942;2022-11-20T13:09:50;4.10;96.00
33673;DHT22;20011;51.510;9.942;2022-11-20T13:17:42;3.40;96.10
33673;DHT22;20011;51.510;9.942;2022-11-20T13:20:15;3.40;96.00
33673;DHT22;20011;51.510;9.942;2022-11-20T13:22:48;4.50;96.50
33673;DHT22;20011;51.510;9.942;2022-11-20T13:27:50;3.30;96.10
33673;DHT22;20011;51.510;9.942;2022-11-20T13:30:20;4.70;96.40
33673;DHT22;20011;51.510;9.942;2022-11-20T13:35:27;3.80;96.20
33673;DHT22;20011;51.510;9.942;2022-11-20T13:38:12;3.40;96.10
33673;DHT22;20011;51.510;9.942;2022-11-20T13:40:57;3.40;96.20
33673;DHT22;20011;51.510;9.942;2022-11-20T13:46:00;3.40;96.50
33673;DHT22;20011;51.510;9.942;2022-11-20T13:48:34;3.40;96.40
33673;DHT22;20011;51.510;9.942;2022-11-20T13:51:07;4.40;96.80
33673;DHT22;20011;51.510;9.942;2022-11-20T13:59:27;4.20;96.50
33673;DHT22;20011;51.510;9.942;2022-11-20T14:01:55;4.30;96.80
33673;DHT22;20011;51.510;9.942;2022-11-20T14:04:29;3.60;96.90
33673;DHT22;20011;51.510;9.942;2022-11-20T14:06:57;3.50;96.60
33673;DHT22;20011;51.510;9.942;2022-11-20T14:09:27;4.40;96.90
33673;DHT22;20011;51.510;9.942;2022-11-20T14:11:55;4.70;97.10
33673;DHT22;20011;51.510;9.942;2022-11-20T14:14:32;3.50;96.70
33673;DHT22;20011;51.510;9.942;2022-11-20T14:17:08;4.00;96.70
33673;DHT22;20011;51.510;9.942;2022-11-20T14:19:35;4.40;96.90
33673;DHT22;20011;51.510;9.942;2022-11-20T14:22:29;3.40;96.60
33673;DHT22;20011;51.510;9.942;2022-11-20T14:27:51;4.20;96.70
33673;DHT22;20011;51.510;9.942;2022-11-20T14:30:21;4.50;96.80
33673;DHT22;20011;51.510;9.942;2022-11-20T14:32:50;3.90;96.60
33673;DHT22;20011;51.510;9.942;2022-11-20T14:35:27;3.40;96.50
33673;DHT22;20011;51.510;9.942;2022-11-20T14:37:55;3.40;96.70
33673;DHT22;20011;51.510;9.942;2022-11-20T14:40:32;3.40;96.70
33673;DHT22;20011;51.510;9.942;2022-11-20T14:43:18;3.40;96.70
33673;DHT22;20011;51.510;9.942;2022-11-20T14:45:57;3.40;96.60
33673;DHT22;20011;51.510;9.942;2022-11-20T14:48:32;4.00;96.80
33673;DHT22;20011;51.510;9.942;2022-11-20T14:51:00;3.30;96.40
33673;DHT22;20011;51.510;9.942;2022-11-20T14:53:28;3.30;96.30
33673;DHT22;20011;51.510;9.942;2022-11-20T14:56:00;3.30;96.30
33673;DHT22;20011;51.510;9.942;2022-11-20T14:58:30;3.30;96.10
33673;DHT22;20011;51.510;9.942;2022-11-20T15:01:04;3.70;96.20
33673;DHT22;20011;51.510;9.942;2022-11-20T15:03:37;3.30;96.00
33673;DHT22;20011;51.510;9.942;2022-11-20T15:06:06;3.30;96.00
33673;DHT22;20011;51.510;9.942;2022-11-20T15:08:34;4.10;96.50
33673;DHT22;20011;51.510;9.942;2022-11-20T15:11:02;3.70;96.30
33673;DHT22;20011;51.510;9.942;2022-11-20T15:13:32;4.90;96.70
33673;DHT22;20011;51.510;9.942;2022-11-20T15:16:01;4.20;96.50
33673;DHT22;20011;51.510;9.942;2022-11-20T15:18:32;3.10;96.30
33673;DHT22;20011;51.510;9.942;2022-11-20T15:21:09;3.60;96.70
33673;DHT22;20011;51.510;9.942;2022-11-20T15:23:40;3.60;96.90
33673;DHT22;20011;51.510;9.942;2022-11-20T15:26:08;3.00;97.30
33673;DHT22;20011;51.510;9.942;2022-11-20T15:28:36;3.30;97.10
33673;DHT22;20011;51.510;9.942;2022-11-20T15:31:04;3.80;97.30
33673;DHT22;20011;51.510;9.942;2022-11-20T15:33:32;3.00;97.20
33673;DHT22;20011;51.510;9.942;2022-11-20T15:36:00;3.10;97.30
33673;DHT22;20011;51.510;9.942;2022-11-20T15:38:27;3.30;97.30
33673;DHT22;20011;51.510;9.942;2022-11-20T15:40:54;3.00;97.70
33673;DHT22;20011;51.510;9.942;2022-11-20T15:43:21;2.90;97.60
33673;DHT22;20011;51.510;9.942;2022-11-20T15:45:52;3.00;97.50
33673;DHT22;20011;51.510;9.942;2022-11-20T15:48:29;4.20;97.90
33673;DHT22;20011;51.510;9.942;2022-11-20T15:53:28;3.70;98.10
33673;DHT22;20011;51.510;9.942;2022-11-20T15:55:55;2.90;97.80
33673;DHT22;20011;51.510;9.942;2022-11-20T15:58:22;2.90;97.90
33673;DHT22;20011;51.510;9.942;2022-11-20T16:00:53;3.30;98.00
33673;DHT22;20011;51.510;9.942;2022-11-20T16:03:21;3.00;97.80
33673;DHT22;20011;51.510;9.942;2022-11-20T16:05:48;4.60;98.10
33673;DHT22;20011;51.510;9.942;2022-11-20T16:08:15;3.00;97.80
33673;DHT22;20011;51.510;9.942;2022-11-20T16:10:42;3.10;97.80
33673;DHT22;20011;51.510;9.942;2022-11-20T16:13:17;4.80;98.10
33673;DHT22;20011;51.510;9.942;2022-11-20T16:16:08;3.20;97.40
33673;DHT22;20011;51.510;9.942;2022-11-20T16:18:38;3.20;97.40
33673;DHT22;20011;51.510;9.942;2022-11-20T16:21:11;4.00;97.70
33673;DHT22;20011;51.510;9.942;2022-11-20T16:23:40;3.30;97.50
33673;DHT22;20011;51.510;9.942;2022-11-20T16:26:16;4.70;97.90
33673;DHT22;20011;51.510;9.942;2022-11-20T16:28:44;3.90;97.60
33673;DHT22;20011;51.510;9.942;2022-11-20T16:31:13;3.30;97.50
33673;DHT22;20011;51.510;9.942;2022-11-20T16:33:41;3.50;97.60
33673;DHT22;20011;51.510;9.942;2022-11-20T16:36:13;3.40;97.50
33673;DHT22;20011;51.510;9.942;2022-11-20T16:38:41;3.60;97.50
33673;DHT22;20011;51.510;9.942;2022-11-20T16:41:09;3.40;97.50
33673;DHT22;20011;51.510;9.942;2022-11-20T16:43:57;4.10;97.80
33673;DHT22;20011;51.510;9.942;2022-11-20T16:46:29;3.40;97.60
33673;DHT22;20011;51.510;9.942;2022-11-20T16:49:05;4.00;97.70
33673;DHT22;20011;51.510;9.942;2022-11-20T16:51:35;3.50;97.40
33673;DHT22;20011;51.510;9.942;2022-11-20T16:54:03;3.60;97.50
33673;DHT22;20011;51.510;9.942;2022-11-20T16:56:30;3.60;97.30
33673;DHT22;20011;51.510;9.942;2022-11-20T16:58:59;3.60;97.00
33673;DHT22;20011;51.510;9.942;2022-11-20T17:01:27;4.40;97.00
33673;DHT22;20011;51.510;9.942;2022-11-20T17:04:00;3.70;96.70
33673;DHT22;20011;51.510;9.942;2022-11-20T17:06:33;3.70;96.60
33673;DHT22;20011;51.510;9.942;2022-11-20T17:09:00;3.70;96.40
33673;DHT22;20011;51.510;9.942;2022-11-20T17:11:27;3.80;96.30
33673;DHT22;20011;51.510;9.942;2022-11-20T17:13:55;3.80;96.40
33673;DHT22;20011;51.510;9.942;2022-11-20T17:16:23;3.90;96.20
33673;DHT22;20011;51.510;9.942;2022-11-20T17:18:52;3.80;96.60
33673;DHT22;20011;51.510;9.942;2022-11-20T17:21:26;3.80;96.10
33673;DHT22;20011;51.510;9.942;2022-11-20T17:23:55;4.30;96.20
33673;DHT22;20011;51.510;9.942;2022-11-20T17:26:23;4.10;96.10
33673;DHT22;20011;51.510;9.942;2022-11-20T17:29:01;3.80;96.00
33673;DHT22;20011;51.510;9.942;2022-11-20T17:31:30;3.80;96.10
33673;DHT22;20011;51.510;9.942;2022-11-20T17:33:58;3.90;96.20
33673;DHT22;20011;51.510;9.942;2022-11-20T17:36:26;5.20;96.50
33673;DHT22;20011;51.510;9.942;2022-11-20T17:38:54;3.90;96.10
33673;DHT22;20011;51.510;9.942;2022-11-20T17:41:24;3.90;96.10
33673;DHT22;20011;51.510;9.942;2022-11-20T17:43:55;4.70;96.20
33673;DHT22;20011;51.510;9.942;2022-11-20T17:46:25;3.90;96.10
33673;DHT22;20011;51.510;9.942;2022-11-20T17:48:54;3.90;96.10
33673;DHT22;20011;51.510;9.942;2022-11-20T17:51:27;3.90;96.20
33673;DHT22;20011;51.510;9.942;2022-11-20T17:53:57;4.00;96.30